Time;durP1;ratioP1;P1;durP2;ratioP2;P2;SDS_P1;SDS_P2;PMS_P1;PMS_P2;Temp;Humidity;BMP_temperature;BMP_pressure;BME280_temperature;BME280_humidity;BME280_pressure;Samples;Min_cycle;Max_cycle;Signal;HPM_P1;HPM_P2
2023/05/27 00:01:36;;;;;;;2.20;2.10;;;;;;;16.87;67.38;96048.94;4367474;32;20184;-61
2023/05/27 00:04:01;;;;;;;3.37;3.17;;;;;;;16.78;67.58;96052.44;4358993;32;20185;-61
2023/05/27 00:06:27;;;;;;;2.50;2.30;;;;;;;16.61;68.17;96047.03;4342521;32;20239;-61
2023/05/27 00:08:52;;;;;;;3.17;2.50;;;;;;;16.65;68.96;96049.88;4366678;32;20181;-61
2023/05/27 00:11:17;;;;;;;2.20;2.10;;;;;;;16.58;68.73;96046.84;4364084;32;20195;-61
2023/05/27 00:13:43;;;;;;;2.70;2.50;;;;;;;16.64;68.64;96045.63;4367928;32;20176;-61
2023/05/27 00:16:08;;;;;;;11.23;2.63;;;;;;;16.53;69.05;96037.06;4355961;32;20189;-61
2023/05/27 00:18:35;;;;;;;3.27;2.53;;;;;;;16.44;69.77;96041.62;4362888;32;20255;-61
2023/05/27 00:21:01;;;;;;;1.83;1.73;;;;;;;16.43;69.97;96043.50;4358793;32;20221;-61
2023/05/27 00:23:26;;;;;;;1.77;1.67;;;;;;;16.41;70.12;96043.06;4365425;32;20229;-61
2023/05/27 00:25:51;;;;;;;2.67;2.57;;;;;;;16.43;72.45;96048.88;4356234;32;20214;-61
2023/05/27 00:28:17;;;;;;;2.77;2.63;;;;;;;16.26;71.13;96043.47;4348066;32;20181;-61
2023/05/27 00:30:42;;;;;;;2.73;2.53;;;;;;;16.21;71.25;96043.59;4350994;32;20287;-61
2023/05/27 00:33:07;;;;;;;2.53;2.43;;;;;;;16.21;71.81;96037.50;4346166;32;20212;-61
2023/05/27 00:35:33;;;;;;;2.33;2.23;;;;;;;16.24;71.35;96037.63;4364153;32;20236;-61
2023/05/27 00:38:01;;;;;;;2.30;2.20;;;;;;;16.24;71.31;96044.87;4367889;32;20199;-61
2023/05/27 00:40:29;;;;;;;6.67;3.50;;;;;;;16.18;71.73;96046.94;4354708;32;20182;-61
2023/05/27 00:42:55;;;;;;;2.40;2.10;;;;;;;16.23;73.35;96046.75;4363781;32;20200;-61
2023/05/27 00:45:21;;;;;;;2.37;2.27;;;;;;;16.20;71.87;96051.97;4359738;32;20181;-61
2023/05/27 00:47:46;;;;;;;2.50;2.40;;;;;;;16.30;71.61;96051.69;4362518;32;20200;-61
2023/05/27 00:50:12;;;;;;;2.03;1.93;;;;;;;16.09;72.40;96049.56;4350910;32;20181;-61
2023/05/27 00:52:37;;;;;;;3.17;2.90;;;;;;;16.03;72.55;96041.97;4354970;32;20232;-61
2023/05/27 00:55:03;;;;;;;2.07;1.97;;;;;;;15.99;73.48;96049.06;4342215;32;20185;-61
2023/05/27 00:57:28;;;;;;;17.50;3.03;;;;;;;16.08;72.65;96047.19;4362209;32;20177;-61
2023/05/27 00:59:53;;;;;;;2.60;2.20;;;;;;;16.12;72.61;96046.28;4344313;32;20388;-61
2023/05/27 01:02:20;;;;;;;2.80;2.50;;;;;;;16.13;72.87;96042.50;4367580;32;20185;-61
2023/05/27 01:04:46;;;;;;;2.03;1.93;;;;;;;16.09;72.95;96038.06;4349758;32;20184;-61
2023/05/27 01:07:29;;;;;;;2.13;2.03;;;;;;;16.03;72.79;96042.78;4352874;32;20177;-61
2023/05/27 01:10:13;;;;;;;2.67;2.57;;;;;;;16.06;72.98;96036.81;4360199;32;20277;-62
2023/05/27 01:12:52;;;;;;;2.60;2.50;;;;;;;15.87;73.47;96036.25;4347249;32;20311;-61
2023/05/27 01:15:18;;;;;;;4.43;2.67;;;;;;;15.89;73.47;96035.94;4352148;32;20182;-61
2023/05/27 01:17:46;;;;;;;2.80;2.60;;;;;;;15.78;73.93;96038.13;4346945;32;20201;-61
2023/05/27 01:20:14;;;;;;;3.13;2.90;;;;;;;15.66;74.35;96033.34;4345252;32;20197;-61
2023/05/27 01:22:41;;;;;;;2.47;2.27;;;;;;;15.69;74.35;96037.28;4355643;32;20199;-61
2023/05/27 01:25:08;;;;;;;3.73;3.33;;;;;;;15.56;74.95;96036.28;4363563;32;20244;-61
2023/05/27 01:27:33;;;;;;;3.67;3.33;;;;;;;15.58;74.76;96031.44;4352074;32;20186;-61
2023/05/27 01:29:59;;;;;;;3.00;2.80;;;;;;;15.56;76.41;96028.28;4349956;32;20215;-61
2023/05/27 01:32:25;;;;;;;3.73;3.43;;;;;;;15.53;75.17;96031.53;4349605;32;20189;-61
2023/05/27 01:35:02;;;;;;;2.30;2.13;;;;;;;15.46;75.77;96033.84;4347432;32;20181;-60
2023/05/27 01:37:37;;;;;;;4.47;2.67;;;;;;;15.40;75.74;96030.50;4350444;32;20250;-61
2023/05/27 01:40:06;;;;;;;2.93;2.73;;;;;;;15.36;76.43;96026.09;4347093;32;20246;-62
2023/05/27 01:42:35;;;;;;;3.23;2.90;;;;;;;15.36;76.28;96024.19;4346415;32;20203;-61
2023/05/27 01:45:05;;;;;;;2.70;2.37;;;;;;;15.31;75.94;96023.53;4356702;32;20231;-61
2023/05/27 01:47:30;;;;;;;2.90;2.80;;;;;;;15.29;76.17;96025.72;4350159;32;20211;-61
2023/05/27 01:49:56;;;;;;;4.67;3.70;;;;;;;15.33;76.31;96026.69;4349048;32;20181;-61
2023/05/27 01:52:21;;;;;;;3.03;2.83;;;;;;;15.32;75.91;96022.44;4364125;32;20199;-61
2023/05/27 01:54:46;;;;;;;3.63;3.33;;;;;;;15.36;75.74;96024.19;4363029;32;20185;-61
2023/05/27 01:57:12;;;;;;;3.07;1.97;;;;;;;15.22;76.74;96018.12;4359900;32;20288;-61
2023/05/27 01:59:37;;;;;;;3.23;2.93;;;;;;;15.38;75.75;96026.56;4344043;32;20263;-61
2023/05/27 02:02:02;;;;;;;4.80;3.47;;;;;;;15.25;75.75;96022.06;4347083;32;20203;-61
2023/05/27 02:04:28;;;;;;;3.43;3.17;;;;;;;15.41;75.67;96020.59;4350103;32;20231;-61
2023/05/27 02:06:53;;;;;;;2.47;2.37;;;;;;;15.33;76.37;96016.78;4345014;32;20227;-61
2023/05/27 02:09:20;;;;;;;2.70;2.50;;;;;;;15.54;80.23;96022.41;4365543;32;20193;-61
2023/05/27 02:11:45;;;;;;;2.43;2.33;;;;;;;15.50;77.88;96021.44;4344236;32;20185;-61
2023/05/27 02:14:11;;;;;;;1.60;1.60;;;;;;;15.58;75.33;96019.94;4356634;32;20200;-61
2023/05/27 02:16:36;;;;;;;2.77;2.57;;;;;;;15.48;74.86;96018.28;4352381;32;20243;-61
2023/05/27 02:19:02;;;;;;;2.83;2.73;;;;;;;15.39;74.91;96020.88;4369640;32;20209;-61
2023/05/27 02:21:28;;;;;;;8.33;3.67;;;;;;;15.33;76.08;96019.47;4363552;32;20263;-60
2023/05/27 02:23:53;;;;;;;2.50;2.40;;;;;;;15.40;76.46;96017.13;4372324;32;20185;-61
2023/05/27 02:26:18;;;;;;;2.43;2.27;;;;;;;15.31;77.92;96015.50;4356821;32;20230;-61
2023/05/27 02:28:44;;;;;;;1.97;1.87;;;;;;;15.36;76.26;96012.72;4362995;32;20243;-61
2023/05/27 02:31:09;;;;;;;1.87;1.80;;;;;;;15.60;81.12;96015.03;4353727;32;20181;-61
2023/05/27 02:33:34;;;;;;;2.33;2.23;;;;;;;15.46;76.63;96013.22;4354430;32;20189;-61
2023/05/27 02:36:00;;;;;;;2.87;2.77;;;;;;;15.34;75.77;96013.00;4355246;32;20205;-61
2023/05/27 02:38:25;;;;;;;2.33;2.23;;;;;;;15.37;76.28;96011.62;4349663;32;20200;-60
2023/05/27 02:40:51;;;;;;;2.23;2.13;;;;;;;15.30;75.52;96011.25;4359664;32;20189;-61
2023/05/27 02:43:16;;;;;;;3.43;3.23;;;;;;;15.43;75.93;96016.50;4364672;32;20229;-61
2023/05/27 02:45:42;;;;;;;3.70;2.70;;;;;;;15.39;74.79;96004.84;4345196;32;20200;-61
2023/05/27 02:48:08;;;;;;;2.50;2.40;;;;;;;15.34;74.34;96004.22;4359520;32;20258;-61
2023/05/27 02:50:33;;;;;;;2.10;2.10;;;;;;;15.51;76.74;96009.63;4365767;32;20193;-60
2023/05/27 02:52:59;;;;;;;2.63;2.53;;;;;;;15.36;74.60;96007.37;4363113;32;20197;-61
2023/05/27 02:55:24;;;;;;;3.67;3.43;;;;;;;15.33;75.83;96007.97;4356741;32;20245;-61
2023/05/27 02:57:50;;;;;;;2.83;2.30;;;;;;;15.51;76.87;96009.63;4368944;32;20184;-61
2023/05/27 03:00:17;;;;;;;2.73;2.63;;;;;;;15.51;76.41;96006.19;4344369;32;20244;-61
2023/05/27 03:02:42;;;;;;;2.80;2.60;;;;;;;15.45;74.79;96008.19;4357628;32;20193;-61
2023/05/27 03:05:07;;;;;;;3.27;3.07;;;;;;;15.30;74.99;96011.25;4370202;32;20256;-61
2023/05/27 03:07:33;;;;;;;2.40;2.27;;;;;;;15.30;76.06;96004.03;4363519;32;20196;-61
2023/05/27 03:09:58;;;;;;;4.83;2.47;;;;;;;15.25;74.67;96006.81;4363742;32;20259;-60
2023/05/27 03:12:24;;;;;;;2.23;2.13;;;;;;;15.23;76.21;96003.66;4357187;32;20184;-61
2023/05/27 03:14:50;;;;;;;16.83;3.90;;;;;;;15.11;76.41;95998.87;4354782;32;20200;-61
2023/05/27 03:17:15;;;;;;;3.10;2.90;;;;;;;15.21;77.80;96003.16;4352374;32;20200;-61
2023/05/27 03:19:41;;;;;;;2.63;2.53;;;;;;;15.09;75.53;96006.41;4353384;32;20207;-61
2023/05/27 03:22:07;;;;;;;3.20;2.93;;;;;;;15.37;75.78;95999.03;4355673;32;20205;-61
2023/05/27 03:24:33;;;;;;;5.07;3.07;;;;;;;15.33;74.39;95999.94;4355095;32;20221;-61
2023/05/27 03:26:59;;;;;;;2.73;2.63;;;;;;;15.36;80.41;96000.13;4364211;32;20299;-61
2023/05/27 03:29:24;;;;;;;4.00;3.37;;;;;;;15.18;78.19;96000.31;4378264;32;20184;-61
2023/05/27 03:31:50;;;;;;;2.10;2.00;;;;;;;15.17;75.99;96004.09;4360663;32;20239;-61
2023/05/27 03:34:15;;;;;;;1.70;1.70;;;;;;;15.25;76.64;96006.81;4357690;32;20209;-61
2023/05/27 03:36:42;;;;;;;2.87;2.70;;;;;;;15.22;75.62;96001.28;4341025;32;20203;-61
2023/05/27 03:39:08;;;;;;;3.30;3.00;;;;;;;15.36;76.94;95996.66;4347984;32;20191;-61
2023/05/27 03:41:33;;;;;;;2.30;2.20;;;;;;;15.24;77.16;96001.78;4371279;32;20205;-61
2023/05/27 03:43:58;;;;;;;4.03;3.53;;;;;;;15.72;84.12;96004.56;4369705;32;20205;-61
2023/05/27 03:46:24;;;;;;;4.23;3.93;;;;;;;15.74;79.43;96007.72;4370067;32;20240;-61
2023/05/27 03:48:49;;;;;;;2.23;2.13;;;;;;;15.97;81.44;96000.41;4358386;32;20192;-61
2023/05/27 03:51:14;;;;;;;3.87;2.57;;;;;;;15.73;73.47;96004.28;4367527;32;20196;-61
2023/05/27 03:53:40;;;;;;;3.17;3.07;;;;;;;15.55;73.12;96005.25;4371550;32;20189;-61
2023/05/27 03:56:05;;;;;;;2.20;2.10;;;;;;;15.54;79.27;96002.91;4362459;32;20252;-61
2023/05/27 03:58:31;;;;;;;1.70;1.70;;;;;;;15.33;72.42;96010.66;4358260;32;20180;-61
2023/05/27 04:00:56;;;;;;;2.10;2.00;;;;;;;15.19;72.93;96001.91;4362748;32;20189;-61
2023/05/27 04:03:22;;;;;;;4.00;3.37;;;;;;;15.15;74.52;95996.41;4370022;32;20184;-61
2023/05/27 04:05:47;;;;;;;4.97;2.13;;;;;;;15.01;74.52;95996.44;4355174;32;20200;-61
2023/05/27 04:08:13;;;;;;;2.47;2.27;;;;;;;15.13;77.74;95993.22;4362838;32;20255;-61
2023/05/27 04:10:38;;;;;;;3.20;3.00;;;;;;;15.31;77.53;96004.81;4362681;32;20224;-61
2023/05/27 04:13:04;;;;;;;2.13;2.03;;;;;;;15.16;75.60;95994.50;4359759;32;20198;-61
2023/05/27 04:15:29;;;;;;;2.30;2.20;;;;;;;15.45;79.36;96000.16;4344546;32;20204;-61
2023/05/27 04:17:54;;;;;;;2.40;2.30;;;;;;;15.43;78.30;96002.34;4348552;32;20218;-61
2023/05/27 04:20:20;;;;;;;3.50;2.90;;;;;;;15.24;73.83;96001.78;4367015;32;20219;-61
2023/05/27 04:22:45;;;;;;;3.87;2.53;;;;;;;15.01;74.54;96001.00;4367635;32;20169;-61
2023/05/27 04:25:10;;;;;;;3.10;2.87;;;;;;;15.01;74.47;96001.78;4350028;32;20281;-61
2023/05/27 04:27:36;;;;;;;2.10;2.00;;;;;;;14.95;74.88;95995.00;4353691;32;20185;-61
2023/05/27 04:30:06;;;;;;;2.70;2.50;;;;;;;14.94;75.44;96000.66;4365050;32;20450;-61
2023/05/27 04:32:37;;;;;;;3.77;2.53;;;;;;;15.02;75.42;96005.25;4358703;32;20178;-60
2023/05/27 04:35:09;;;;;;;2.43;2.33;;;;;;;14.96;75.19;96014.50;4360160;32;20185;-61
2023/05/27 04:37:36;;;;;;;2.73;2.53;;;;;;;15.27;81.22;96009.97;4359764;32;20246;-61
2023/05/27 04:40:03;;;;;;;7.33;3.43;;;;;;;15.07;75.88;96011.28;4365275;32;20305;-61
2023/05/27 04:42:29;;;;;;;2.33;2.23;;;;;;;15.03;74.45;96010.28;4350645;32;20235;-61
2023/05/27 04:44:54;;;;;;;2.70;2.57;;;;;;;15.10;73.95;96018.69;4356183;32;20244;-61
2023/05/27 04:47:20;;;;;;;3.63;2.57;;;;;;;14.84;74.29;96007.00;4361218;32;20204;-61
2023/05/27 04:49:46;;;;;;;2.30;2.20;;;;;;;14.86;74.38;96001.38;4353794;32;20247;-61
2023/05/27 04:52:12;;;;;;;2.73;2.63;;;;;;;15.10;80.40;95999.97;4343278;32;20189;-61
2023/05/27 04:54:37;;;;;;;2.37;2.27;;;;;;;15.24;81.32;96001.78;4373018;32;20185;-61
2023/05/27 04:57:03;;;;;;;3.47;3.27;;;;;;;14.97;75.60;96000.03;4345403;32;20276;-61
2023/05/27 04:59:58;;;;;;;2.13;2.03;;;;;;;15.10;76.59;96005.31;4346594;32;20208;-61
2023/05/27 05:02:25;;;;;;;1.73;1.73;;;;;;;15.29;79.80;95999.78;4363578;32;20177;-62
2023/05/27 05:04:50;;;;;;;2.57;2.37;;;;;;;15.42;79.75;96001.56;4358646;32;20173;-61
2023/05/27 05:07:16;;;;;;;4.43;2.83;;;;;;;15.37;76.99;96004.38;4367345;32;20177;-61
2023/05/27 05:09:42;;;;;;;2.63;2.43;;;;;;;15.29;73.31;96001.66;4361367;32;20242;-61
2023/05/27 05:12:07;;;;;;;1.83;1.83;;;;;;;15.48;78.99;95996.88;4359341;32;20181;-61
2023/05/27 05:14:33;;;;;;;2.43;2.33;;;;;;;15.47;75.86;96000.66;4365811;32;20222;-61
2023/05/27 05:16:58;;;;;;;3.37;3.07;;;;;;;15.50;74.58;96000.03;4355551;32;20212;-61
2023/05/27 05:19:23;;;;;;;2.20;2.10;;;;;;;15.52;74.09;96003.19;4350277;32;20223;-62
2023/05/27 05:21:49;;;;;;;3.13;2.83;;;;;;;15.59;71.98;96008.16;4352228;32;20177;-61
2023/05/27 05:24:14;;;;;;;4.73;2.87;;;;;;;15.73;76.88;96017.66;4367218;32;20280;-61
2023/05/27 05:26:40;;;;;;;3.03;2.80;;;;;;;15.64;73.11;96006.09;4365631;32;20173;-61
2023/05/27 05:29:05;;;;;;;2.50;2.40;;;;;;;15.64;70.81;96011.44;4355443;32;20189;-61
2023/05/27 05:31:31;;;;;;;2.07;1.97;;;;;;;15.46;72.50;96009.75;4371978;32;20259;-61
2023/05/27 05:33:56;;;;;;;3.37;3.07;;;;;;;15.34;72.92;96012.22;4358759;32;20200;-61
2023/05/27 05:36:22;;;;;;;2.20;2.00;;;;;;;15.51;75.23;96020.34;4368483;32;20192;-61
2023/05/27 05:38:48;;;;;;;2.40;2.30;;;;;;;15.75;76.62;96009.31;4364924;32;20228;-61
2023/05/27 05:41:13;;;;;;;3.40;2.70;;;;;;;15.85;73.64;96013.59;4356096;32;20271;-61
2023/05/27 05:43:38;;;;;;;2.47;2.20;;;;;;;15.84;72.20;96023.50;4358169;32;20223;-61
2023/05/27 05:46:04;;;;;;;2.23;2.13;;;;;;;15.89;74.27;96020.69;4350517;32;20180;-60
2023/05/27 05:48:29;;;;;;;3.07;2.87;;;;;;;15.88;75.04;96026.34;4346644;32;20208;-61
2023/05/27 05:50:54;;;;;;;1.90;1.90;;;;;;;16.05;78.46;96024.50;4364576;32;20293;-60
2023/05/27 05:53:20;;;;;;;2.73;2.63;;;;;;;15.75;69.05;96020.81;4359843;32;20189;-61
2023/05/27 05:55:45;;;;;;;3.00;2.70;;;;;;;15.51;70.21;96020.34;4352787;32;20271;-61
2023/05/27 05:58:10;;;;;;;6.83;1.93;;;;;;;15.72;70.05;96024.09;4363449;32;20201;-61
2023/05/27 06:00:36;;;;;;;1.60;1.60;;;;;;;15.78;69.30;96017.50;4359111;32;20186;-61
2023/05/27 06:03:04;;;;;;;1.40;1.40;;;;;;;15.87;70.34;96024.78;4366384;32;20240;-61
2023/05/27 06:05:29;;;;;;;2.17;2.07;;;;;;;15.93;68.31;96015.50;4358675;32;20212;-61
2023/05/27 06:07:55;;;;;;;3.87;1.87;;;;;;;15.90;69.68;96018.81;4363134;32;20189;-61
2023/05/27 06:10:20;;;;;;;2.90;2.70;;;;;;;15.84;67.20;96018.16;4363439;32;20177;-61
2023/05/27 06:12:45;;;;;;;1.40;1.40;;;;;;;15.95;70.51;96014.09;4349442;32;20277;-61
2023/05/27 06:15:12;;;;;;;2.33;2.13;;;;;;;16.03;68.96;96020.56;4359668;32;20257;-61
2023/05/27 06:17:37;;;;;;;2.67;1.87;;;;;;;16.19;67.59;96024.41;4349512;32;20196;-61
2023/05/27 06:20:03;;;;;;;2.80;2.60;;;;;;;16.23;69.91;96025.34;4356093;32;20181;-61
2023/05/27 06:22:28;;;;;;;1.73;1.67;;;;;;;16.42;70.93;96017.03;4366947;32;20424;-61
2023/05/27 06:24:53;;;;;;;1.93;1.77;;;;;;;16.63;70.46;96022.56;4364734;32;20181;-61
2023/05/27 06:27:19;;;;;;;2.07;1.97;;;;;;;16.67;69.45;96018.19;4360794;32;20223;-61
2023/05/27 06:29:46;;;;;;;1.37;1.27;;;;;;;16.70;66.65;96030.97;4362984;32;20181;-61
2023/05/27 06:32:11;;;;;;;2.93;1.63;;;;;;;16.74;64.57;96021.22;4371454;32;20183;-61
2023/05/27 06:34:36;;;;;;;1.97;1.87;;;;;;;16.72;63.18;96020.72;4365187;32;20224;-61
2023/05/27 06:37:02;;;;;;;1.97;1.87;;;;;;;16.68;62.92;96020.56;4356980;32;20181;-61
2023/05/27 06:39:27;;;;;;;5.17;3.17;;;;;;;16.71;68.09;96019.94;4359745;32;20181;-62
2023/05/27 06:41:53;;;;;;;9.50;3.37;;;;;;;16.91;67.00;96031.13;4346596;32;20240;-64
2023/05/27 06:44:18;;;;;;;2.63;2.47;;;;;;;17.32;73.35;96022.56;4352495;32;20176;-62
2023/05/27 06:46:43;;;;;;;2.77;2.47;;;;;;;17.48;69.87;96015.59;4360622;32;20288;-61
2023/05/27 06:49:09;;;;;;;1.03;1.03;;;;;;;17.70;65.93;96011.94;4366099;32;20252;-62
2023/05/27 06:51:34;;;;;;;3.30;1.50;;;;;;;17.56;60.96;96012.09;4359890;32;20189;-62
2023/05/27 06:53:59;;;;;;;3.80;2.27;;;;;;;17.60;60.21;96015.72;4348727;32;20177;-61
2023/05/27 06:56:25;;;;;;;4.00;1.27;;;;;;;17.62;61.20;96013.50;4354713;32;20203;-62
2023/05/27 06:58:50;;;;;;;1.03;0.93;;;;;;;17.67;62.19;96016.03;4357050;32;20207;-62
2023/05/27 07:01:16;;;;;;;6.23;2.17;;;;;;;17.62;60.32;96018.88;4370933;32;20279;-62
2023/05/27 07:03:42;;;;;;;2.97;1.70;;;;;;;18.00;69.63;96015.44;4353171;32;20221;-63
2023/05/27 07:06:07;;;;;;;1.10;1.10;;;;;;;17.93;60.60;96018.62;4361374;32;20181;-62
2023/05/27 07:08:32;;;;;;;7.40;1.80;;;;;;;18.29;71.43;96014.69;4357995;32;20239;-62
2023/05/27 07:10:58;;;;;;;1.47;1.37;;;;;;;18.10;59.47;96023.13;4368577;32;20185;-62
2023/05/27 07:13:23;;;;;;;1.17;1.17;;;;;;;17.81;58.24;96018.53;4353917;32;20185;-66
2023/05/27 07:15:49;;;;;;;2.50;2.03;;;;;;;17.69;59.43;96010.34;4367540;32;20178;-62
2023/05/27 07:18:14;;;;;;;1.77;1.67;;;;;;;17.62;60.26;96016.19;4346399;32;20200;-62
2023/05/27 07:20:39;;;;;;;1.93;1.83;;;;;;;17.75;65.55;96015.22;4356975;32;20185;-61
2023/05/27 07:23:05;;;;;;;1.93;1.70;;;;;;;18.01;63.96;96007.06;4360917;32;20203;-62
2023/05/27 07:25:30;;;;;;;2.30;2.20;;;;;;;18.15;63.23;96015.69;4369716;32;20189;-62
2023/05/27 07:27:56;;;;;;;20.23;2.20;;;;;;;18.16;59.15;96008.41;4369611;32;20188;-61
2023/05/27 07:30:21;;;;;;;4.10;2.67;;;;;;;18.32;59.71;96014.00;4355678;32;20236;-61
2023/05/27 07:32:46;;;;;;;1.60;1.50;;;;;;;18.34;57.77;96009.09;4356254;32;20176;-61
2023/05/27 07:35:12;;;;;;;1.53;1.43;;;;;;;18.39;60.87;96012.38;4344531;32;20264;-61
2023/05/27 07:37:37;;;;;;;1.67;1.67;;;;;;;18.37;58.41;96011.91;4361039;32;20172;-61
2023/05/27 07:40:03;;;;;;;1.27;1.27;;;;;;;18.41;58.01;96014.75;4346105;32;20178;-61
2023/05/27 07:42:29;;;;;;;1.23;1.23;;;;;;;18.42;57.38;96017.13;4376353;32;20211;-61
2023/05/27 07:44:55;;;;;;;2.60;1.67;;;;;;;18.41;58.80;96002.09;4357649;32;20191;-61
2023/05/27 07:47:20;;;;;;;1.97;1.73;;;;;;;18.47;57.57;96010.75;4353260;32;20188;-61
2023/05/27 07:49:46;;;;;;;1.33;1.23;;;;;;;18.47;60.41;96000.81;4360624;32;20292;-61
2023/05/27 07:52:11;;;;;;;1.20;1.20;;;;;;;18.52;57.52;96003.28;4358150;32;20263;-61
2023/05/27 07:54:36;;;;;;;1.30;1.20;;;;;;;18.62;58.65;96004.03;4357895;32;20181;-61
2023/05/27 07:57:02;;;;;;;3.67;1.40;;;;;;;18.62;59.37;96009.41;4362371;32;20252;-61
2023/05/27 07:59:29;;;;;;;3.13;2.20;;;;;;;18.62;56.68;96001.34;4371122;32;20189;-62
2023/05/27 08:01:54;;;;;;;7.57;2.10;;;;;;;18.62;58.85;96006.72;4364209;32;20180;-61
2023/05/27 08:04:19;;;;;;;1.67;1.47;;;;;;;18.56;56.77;96006.09;4375355;32;20242;-61
2023/05/27 08:06:45;;;;;;;1.67;1.43;;;;;;;18.62;58.92;96004.03;4366797;32;20236;-61
2023/05/27 08:09:10;;;;;;;1.27;1.13;;;;;;;18.72;61.96;95999.06;4348147;32;20196;-62
2023/05/27 08:11:35;;;;;;;1.77;1.67;;;;;;;18.76;62.04;96001.88;4363747;32;20189;-61
2023/05/27 08:14:03;;;;;;;2.40;1.77;;;;;;;18.70;56.10;96000.53;4353247;32;20193;-61
2023/05/27 08:16:29;;;;;;;1.50;1.40;;;;;;;18.68;57.05;95997.38;4350825;32;20238;-61
2023/05/27 08:18:54;;;;;;;1.03;1.03;;;;;;;18.81;58.16;95996.31;4342785;32;20190;-61
2023/05/27 08:21:20;;;;;;;2.23;1.97;;;;;;;18.76;58.81;95988.44;4359312;32;20262;-61
2023/05/27 08:23:45;;;;;;;2.03;1.93;;;;;;;18.71;58.10;95997.47;4378254;32;20180;-61
2023/05/27 08:26:11;;;;;;;2.27;2.17;;;;;;;18.71;58.62;95986.72;4362297;32;20296;-61
2023/05/27 08:28:36;;;;;;;6.00;1.60;;;;;;;18.65;56.99;95993.44;4366769;32;20192;-61
2023/05/27 08:31:03;;;;;;;3.50;2.10;;;;;;;18.78;58.64;95976.25;4367751;32;20211;-61
2023/05/27 08:33:28;;;;;;;1.10;1.10;;;;;;;18.82;57.09;95981.75;4362754;32;20259;-62
2023/05/27 08:35:53;;;;;;;2.07;1.97;;;;;;;18.79;57.19;95990.47;4361960;32;20238;-63
2023/05/27 08:38:19;;;;;;;2.50;2.30;;;;;;;18.75;58.20;95978.78;4350730;32;20177;-61
2023/05/27 08:40:44;;;;;;;1.37;1.37;;;;;;;18.86;58.66;95977.28;4364267;32;20218;-61
2023/05/27 08:43:10;;;;;;;2.73;1.77;;;;;;;18.84;57.87;95974.16;4355195;32;20177;-61
2023/05/27 08:45:36;;;;;;;1.57;1.47;;;;;;;18.87;56.70;95973.47;4355788;32;20216;-61
2023/05/27 08:48:02;;;;;;;1.60;1.50;;;;;;;18.91;57.86;95960.97;4359696;32;20185;-61
2023/05/27 08:50:27;;;;;;;2.40;1.40;;;;;;;18.85;57.22;95971.13;4355871;32;20173;-62
2023/05/27 08:52:54;;;;;;;1.90;1.70;;;;;;;18.98;58.32;95971.94;4348919;32;20235;-61
2023/05/27 08:55:21;;;;;;;1.33;1.23;;;;;;;19.02;56.81;95970.19;4356128;32;20189;-61
2023/05/27 08:57:51;;;;;;;2.10;1.97;;;;;;;19.08;57.74;95974.25;4362185;32;20228;-62
2023/05/27 09:00:17;;;;;;;1.80;1.63;;;;;;;19.09;56.97;95967.75;4348573;32;20198;-62
2023/05/27 09:02:43;;;;;;;1.63;1.53;;;;;;;19.03;57.31;95969.06;4360043;32;20194;-61
2023/05/27 09:05:12;;;;;;;1.60;1.50;;;;;;;19.04;58.84;95970.63;4358401;32;20264;-61
2023/05/27 09:07:38;;;;;;;1.63;1.53;;;;;;;19.15;56.34;95965.62;4357308;32;20251;-61
2023/05/27 09:10:06;;;;;;;4.33;1.30;;;;;;;19.19;57.39;95969.22;4351906;32;20223;-61
2023/05/27 09:12:32;;;;;;;1.60;1.50;;;;;;;19.20;57.46;95966.19;4353346;32;20234;-62
2023/05/27 09:14:57;;;;;;;1.53;1.53;;;;;;;19.14;56.86;95967.50;4356717;32;20236;-62
2023/05/27 09:17:24;;;;;;;0.90;0.90;;;;;;;19.24;57.37;95960.94;4368945;32;20197;-62
2023/05/27 09:19:53;;;;;;;2.50;1.63;;;;;;;19.32;58.49;95961.97;4351460;32;20201;-62
2023/05/27 09:22:31;;;;;;;1.50;1.33;;;;;;;19.46;56.44;95959.75;4373729;32;20237;-62
2023/05/27 09:24:57;;;;;;;1.63;1.53;;;;;;;19.51;56.15;95954.97;4359383;32;20185;-62
2023/05/27 09:27:27;;;;;;;2.17;1.63;;;;;;;19.61;56.82;95959.13;4357149;32;20193;-61
2023/05/27 09:29:53;;;;;;;1.30;1.30;;;;;;;19.64;56.69;95950.38;4349530;32;20180;-62
2023/05/27 09:32:31;;;;;;;1.50;1.40;;;;;;;19.70;56.94;95953.66;4359116;32;20189;-61
2023/05/27 09:34:57;;;;;;;2.20;2.10;;;;;;;19.67;55.04;95951.63;4359883;32;20227;-62
2023/05/27 09:37:34;;;;;;;1.40;1.40;;;;;;;19.71;54.36;95958.69;4345965;32;20201;-63
2023/05/27 09:40:14;;;;;;;2.50;2.30;;;;;;;19.72;54.33;95954.88;4349611;32;20251;-62
2023/05/27 09:42:49;;;;;;;2.20;2.10;;;;;;;19.64;54.08;95957.69;4359706;32;20189;-63
2023/05/27 09:45:17;;;;;;;2.77;2.23;;;;;;;19.53;54.17;95938.50;4358032;32;20256;-62
2023/05/27 09:47:48;;;;;;;1.57;1.43;;;;;;;19.52;54.85;95943.09;4353630;32;20189;-62
2023/05/27 09:50:16;;;;;;;1.37;1.27;;;;;;;19.68;54.03;95947.81;4341682;32;20288;-62
2023/05/27 09:52:44;;;;;;;1.67;1.60;;;;;;;19.72;54.38;95949.50;4350961;32;20296;-62
2023/05/27 09:55:12;;;;;;;2.50;1.97;;;;;;;19.73;54.36;95945.69;4352748;32;20254;-62
2023/05/27 09:57:39;;;;;;;1.50;1.50;;;;;;;19.81;53.36;95941.31;4347311;32;20262;-63
2023/05/27 10:00:11;;;;;;;1.60;1.50;;;;;;;19.97;53.22;95944.09;4358394;32;20227;-63
2023/05/27 10:02:38;;;;;;;2.50;2.30;;;;;;;20.05;52.57;95935.12;4355253;32;20232;-62
2023/05/27 10:05:07;;;;;;;1.73;1.63;;;;;;;20.03;52.69;95937.38;4358970;32;20248;-62
2023/05/27 10:07:37;;;;;;;1.80;1.70;;;;;;;20.06;52.51;95934.00;4354025;32;20235;-62
2023/05/27 10:10:16;;;;;;;1.33;0.70;;;;;;;20.03;53.56;95935.47;4365189;32;20185;-63
2023/05/27 10:12:43;;;;;;;1.80;1.70;;;;;;;20.12;53.36;95930.75;4357764;32;20244;-63
2023/05/27 10:15:09;;;;;;;1.33;1.33;;;;;;;20.17;53.35;95930.50;4352744;32;20245;-62
2023/05/27 10:17:47;;;;;;;2.43;2.27;;;;;;;20.32;51.02;95934.41;4365390;32;20208;-63
2023/05/27 10:20:33;;;;;;;1.40;1.37;;;;;;;20.25;50.21;95936.88;4353774;32;20200;-63
2023/05/27 10:23:21;;;;;;;2.00;1.90;;;;;;;20.28;50.20;95922.75;4373637;32;20196;-63
2023/05/27 10:25:52;;;;;;;3.20;1.80;;;;;;;20.30;50.05;95928.56;4360954;32;20231;-62
2023/05/27 10:28:31;;;;;;;2.03;1.93;;;;;;;20.32;49.89;95922.84;4346448;32;20242;-63
2023/05/27 10:31:10;;;;;;;1.67;1.63;;;;;;;20.32;48.14;95929.03;4373505;32;20189;-62
2023/05/27 10:33:37;;;;;;;1.67;1.53;;;;;;;20.39;47.39;95921.16;4359685;32;20246;-63
2023/05/27 10:36:10;;;;;;;1.80;1.73;;;;;;;20.41;47.64;95920.81;4364168;32;20303;-62
2023/05/27 10:38:36;;;;;;;1.87;1.77;;;;;;;20.42;48.37;95923.19;4350554;32;20197;-62
2023/05/27 10:41:03;;;;;;;2.20;2.00;;;;;;;20.41;48.69;95910.81;4353523;32;20204;-63
2023/05/27 10:43:33;;;;;;;2.07;1.97;;;;;;;20.43;48.77;95903.19;4368928;32;20196;-63
2023/05/27 10:46:03;;;;;;;8.70;1.37;;;;;;;20.43;48.86;95913.97;4362193;32;20265;-62
2023/05/27 10:48:28;;;;;;;1.50;1.40;;;;;;;20.47;47.94;95914.06;4344768;32;20201;-63
2023/05/27 10:50:57;;;;;;;1.33;1.23;;;;;;;20.48;46.93;95910.25;4352201;32;20199;-62
2023/05/27 10:53:25;;;;;;;1.70;1.60;;;;;;;20.46;47.84;95897.09;4349227;32;20204;-62
2023/05/27 10:55:51;;;;;;;1.27;1.27;;;;;;;20.50;47.74;95900.69;4347399;32;20241;-63
2023/05/27 10:58:17;;;;;;;2.53;2.00;;;;;;;20.46;48.74;95905.19;4376671;32;20207;-63
2023/05/27 11:00:45;;;;;;;4.10;2.33;;;;;;;20.44;48.47;95895.88;4371659;32;20201;-63
2023/05/27 11:03:25;;;;;;;2.17;2.07;;;;;;;20.44;49.74;95904.75;4355385;32;20232;-63
2023/05/27 11:06:06;;;;;;;1.43;1.33;;;;;;;20.25;48.96;95899.94;4367340;32;20197;-63
2023/05/27 11:08:33;;;;;;;1.17;1.17;;;;;;;20.23;50.47;95899.50;4349597;32;20189;-63
2023/05/27 11:10:59;;;;;;;1.87;1.70;;;;;;;20.23;48.94;95898.72;4364394;32;20203;-63
2023/05/27 11:13:33;;;;;;;4.90;1.93;;;;;;;20.29;48.69;95891.19;4359815;32;20211;-63
2023/05/27 11:15:59;;;;;;;2.40;2.23;;;;;;;20.33;48.81;95887.47;4364584;32;20185;-63
2023/05/27 11:18:24;;;;;;;4.53;1.57;;;;;;;20.43;48.90;95900.47;4365534;32;20200;-63
2023/05/27 11:20:50;;;;;;;2.27;2.17;;;;;;;20.30;48.95;95888.16;4358146;32;20188;-63
2023/05/27 11:23:16;;;;;;;1.20;1.20;;;;;;;20.35;49.19;95882.53;4364890;32;20197;-62
2023/05/27 11:25:44;;;;;;;1.33;1.23;;;;;;;20.40;48.43;95881.50;4353444;32;20200;-63
2023/05/27 11:28:16;;;;;;;2.83;2.10;;;;;;;20.42;48.61;95882.75;4369826;32;20299;-63
2023/05/27 11:30:41;;;;;;;2.80;1.90;;;;;;;20.43;48.56;95878.91;4350823;32;20196;-63
2023/05/27 11:33:07;;;;;;;1.67;1.57;;;;;;;20.37;48.09;95877.59;4362599;32;20249;-62